Midway, South Dakota
Current Conditions -  °F | °C
As of 1:15 PM on Saturday 25 Oct 2014 (Local Time) from KYKN Reporting Station
Clear Clear  
Wind Chill: 66°   Ceiling: Unl
Heat Index: 66°   Visibility: 10mi
Dew Point: 34°   Wind: 7mph
Humidity: 30%   Direction: 20°NNE
Pressure: 30.14"   Gusts: NA
Location:  43.1951°N, 97.1515°W
Report Text: KYKN 251815Z AUTO 02006KT 10SM CLR 19/01 A3014 RMK AO1
Loading
Personal Weather Stations






























Interactive Weather Map
Tropical Storm Tracking
New forecast layout! Learn more

10-Day Weather Forecast

Advertisements
Track Severe Weather on mobile